Time;durP1;ratioP1;P1;durP2;ratioP2;P2;SDS_P1;SDS_P2;PMS_P1;PMS_P2;Temp;Humidity;BMP_temperature;BMP_pressure;BME280_temperature;BME280_humidity;BME280_pressure;Samples;Min_cycle;Max_cycle;Signal;HPM_P1;HPM_P2
2021/03/06 00:00:23;;;;;;;1.23;0.60;;;;;;;-0.43;54.40;99949.95;1794258;77;21127;-61
2021/03/06 00:02:51;;;;;;;1.73;0.60;;;;;;;-0.45;54.72;99941.14;1795703;77;21371;-61
2021/03/06 00:05:20;;;;;;;2.20;0.53;;;;;;;-0.47;54.48;99949.06;1800536;77;21009;-61
2021/03/06 00:07:48;;;;;;;1.27;0.50;;;;;;;-0.51;54.37;99946.44;1791198;77;21114;-60
2021/03/06 00:10:15;;;;;;;13.60;3.77;;;;;;;-0.54;54.66;99951.72;1801484;77;21117;-60
2021/03/06 00:12:45;;;;;;;7.40;2.03;;;;;;;-0.57;54.53;99950.39;1790726;77;21091;-60
2021/03/06 00:15:24;;;;;;;1.87;0.67;;;;;;;-0.59;54.65;99954.78;1791339;77;22302;-60
2021/03/06 00:17:52;;;;;;;1.20;0.50;;;;;;;-0.62;54.85;99954.37;1790260;77;21160;-57
2021/03/06 00:20:20;;;;;;;0.70;0.40;;;;;;;-0.67;54.76;99964.48;1793038;77;21158;-60
2021/03/06 00:22:47;;;;;;;2.10;0.30;;;;;;;-0.72;54.86;99960.97;1793911;77;21090;-59
2021/03/06 00:25:15;;;;;;;2.07;0.47;;;;;;;-0.77;55.03;99959.19;1792582;77;21143;-58
2021/03/06 00:27:43;;;;;;;1.67;0.40;;;;;;;-0.79;55.39;99957.45;1798954;77;21207;-58
2021/03/06 00:30:13;;;;;;;3.73;0.80;;;;;;;-0.80;55.26;99959.20;1792044;77;21127;-56
2021/03/06 00:32:40;;;;;;;2.50;0.50;;;;;;;-0.84;55.30;99962.71;1792527;77;21222;-56
2021/03/06 00:35:10;;;;;;;0.70;0.30;;;;;;;-0.86;55.39;99958.33;1790984;77;21625;-57
2021/03/06 00:37:37;;;;;;;5.97;0.90;;;;;;;-0.88;55.10;99961.41;1790487;77;21174;-56
2021/03/06 00:40:07;;;;;;;5.30;1.30;;;;;;;-0.95;55.07;99961.84;1793578;77;21155;-57
2021/03/06 00:42:34;;;;;;;2.57;0.50;;;;;;;-1.02;55.34;99957.88;1791290;77;21174;-55
2021/03/06 00:45:03;;;;;;;1.43;0.47;;;;;;;-1.07;55.32;99964.45;1790492;77;21167;-55
2021/03/06 00:47:30;;;;;;;2.00;0.40;;;;;;;-1.10;55.47;99964.44;1791949;77;21124;-56
2021/03/06 00:49:59;;;;;;;4.10;0.67;;;;;;;-1.13;55.74;99964.89;1791838;77;21460;-56
2021/03/06 00:52:27;;;;;;;2.10;0.40;;;;;;;-1.14;55.63;99965.33;1795037;77;21654;-58
2021/03/06 00:54:54;;;;;;;1.57;0.37;;;;;;;-1.19;55.53;99963.98;1793355;77;21166;-55
2021/03/06 00:57:22;;;;;;;1.63;0.30;;;;;;;-1.21;55.42;99956.95;1740608;80;21178;-55
2021/03/06 00:59:50;;;;;;;1.80;0.30;;;;;;;-1.24;55.55;99965.73;1741923;79;21999;-56
2021/03/06 01:02:17;;;;;;;1.20;0.30;;;;;;;-1.23;55.47;99969.27;1735708;79;21484;-58
2021/03/06 01:04:47;;;;;;;2.10;0.30;;;;;;;-1.25;55.53;99964.41;1795198;77;21429;-56
2021/03/06 01:07:15;;;;;;;3.23;0.40;;;;;;;-1.28;55.72;99969.70;1796022;77;21182;-58
2021/03/06 01:09:42;;;;;;;1.53;0.33;;;;;;;-1.29;55.62;99971.46;1737420;80;21417;-56
2021/03/06 01:12:09;;;;;;;2.93;0.30;;;;;;;-1.28;55.51;99965.74;1731817;80;21198;-56
2021/03/06 01:14:36;;;;;;;0.50;0.20;;;;;;;-1.31;53.64;99974.53;1737523;79;21179;-59
2021/03/06 01:17:04;;;;;;;0.90;0.20;;;;;;;-1.37;52.17;99976.28;1796255;77;21205;-58
2021/03/06 01:19:31;;;;;;;1.30;0.30;;;;;;;-1.42;52.39;99975.36;1793110;77;21705;-57
2021/03/06 01:21:58;;;;;;;3.13;0.27;;;;;;;-1.47;52.23;99974.48;1791654;77;21238;-59
2021/03/06 01:24:27;;;;;;;0.47;0.20;;;;;;;-1.50;51.93;99974.45;1793733;77;21158;-57
2021/03/06 01:26:56;;;;;;;1.67;0.30;;;;;;;-1.55;51.92;99979.30;1792062;77;21203;-57
2021/03/06 01:29:23;;;;;;;1.33;0.30;;;;;;;-1.57;52.11;99980.16;1791533;77;21203;-59
2021/03/06 01:31:51;;;;;;;0.83;0.40;;;;;;;-1.57;52.35;99978.40;1795801;77;21166;-57
2021/03/06 01:34:18;;;;;;;0.70;0.40;;;;;;;-1.56;52.32;99980.17;1793105;77;21207;-58
2021/03/06 01:36:45;;;;;;;1.50;0.60;;;;;;;-1.55;52.32;99977.09;1792480;77;21696;-58
2021/03/06 01:39:13;;;;;;;1.27;0.30;;;;;;;-1.54;52.67;99986.34;1797299;77;21186;-57
2021/03/06 01:41:40;;;;;;;0.90;0.40;;;;;;;-1.55;52.25;99986.33;1790648;77;22323;-59
2021/03/06 01:44:08;;;;;;;2.03;0.30;;;;;;;-1.57;52.64;99986.31;1797443;77;21242;-60
2021/03/06 01:46:35;;;;;;;0.97;0.50;;;;;;;-1.59;52.64;99992.02;1793049;77;21182;-58
2021/03/06 01:49:03;;;;;;;0.80;0.30;;;;;;;-1.61;52.99;99999.48;1794871;77;21680;-59
2021/03/06 01:51:30;;;;;;;1.33;0.40;;;;;;;-1.62;53.11;100001.27;1789047;77;21540;-59
2021/03/06 01:53:57;;;;;;;1.03;0.37;;;;;;;-1.61;52.89;100004.32;1791728;77;22589;-59
2021/03/06 01:56:24;;;;;;;0.87;0.30;;;;;;;-1.65;52.86;100005.20;1788496;77;21246;-59
2021/03/06 01:58:52;;;;;;;0.70;0.40;;;;;;;-1.68;52.74;100010.89;1776473;77;21186;-60
2021/03/06 02:01:19;;;;;;;2.90;0.40;;;;;;;-1.74;52.40;100017.47;1795184;77;21724;-58
2021/03/06 02:03:47;;;;;;;0.50;0.30;;;;;;;-1.80;52.72;100010.84;1787246;77;21467;-59
2021/03/06 02:06:17;;;;;;;2.47;0.40;;;;;;;-1.80;52.81;100022.28;1786733;77;21350;-59
2021/03/06 02:08:46;;;;;;;1.63;0.40;;;;;;;-1.79;53.20;100024.05;1790417;77;22402;-59
2021/03/06 02:11:38;;;;;;;6.53;1.50;;;;;;;-1.76;53.11;100027.13;1791259;77;21199;-59
2021/03/06 02:14:35;;;;;;;0.90;0.47;;;;;;;-1.81;52.97;100024.91;1792837;77;21151;-60
2021/03/06 02:17:07;;;;;;;2.20;0.40;;;;;;;-1.84;53.29;100029.72;1795147;77;21507;-61
2021/03/06 02:20:08;;;;;;;3.80;0.50;;;;;;;-1.83;53.26;100036.77;1765729;77;21392;-61
2021/03/06 02:23:02;;;;;;;0.60;0.30;;;;;;;-1.86;52.57;100039.81;1791609;77;21795;-61
2021/03/06 02:26:05;;;;;;;0.40;0.30;;;;;;;-1.90;52.59;100046.84;1796028;77;21175;-60
2021/03/06 02:29:24;;;;;;;0.60;0.30;;;;;;;-1.97;52.26;100051.20;1790670;77;21258;-61
2021/03/06 02:31:54;;;;;;;0.73;0.30;;;;;;;-2.03;52.33;100057.73;1793097;77;21174;-60
2021/03/06 02:34:29;;;;;;;2.63;0.70;;;;;;;-2.03;52.51;100056.84;1797411;77;22571;-60
2021/03/06 02:37:00;;;;;;;1.57;0.27;;;;;;;-2.05;52.71;100058.19;1795601;77;21412;-61
2021/03/06 02:39:29;;;;;;;1.40;0.40;;;;;;;-2.05;52.43;100055.98;1776446;77;21095;-61
2021/03/06 02:41:57;;;;;;;1.17;0.40;;;;;;;-2.08;52.21;100055.52;1776470;77;21395;-61
2021/03/06 02:44:26;;;;;;;1.63;0.43;;;;;;;-2.10;52.05;100061.64;1804676;77;21085;-60
2021/03/06 02:46:56;;;;;;;2.03;0.40;;;;;;;-2.13;51.79;100062.95;1766396;77;21360;-61
2021/03/06 02:49:23;;;;;;;2.63;0.33;;;;;;;-2.15;51.98;100061.62;1794290;77;21149;-61
2021/03/06 02:51:51;;;;;;;1.93;0.30;;;;;;;-2.12;52.03;100069.97;1792834;77;21115;-61
2021/03/06 02:54:19;;;;;;;1.47;0.30;;;;;;;-2.12;52.25;100071.28;1797017;77;21103;-61
2021/03/06 02:56:47;;;;;;;0.83;0.30;;;;;;;-2.11;52.18;100083.17;1793950;77;21091;-61
2021/03/06 02:59:40;;;;;;;1.30;0.30;;;;;;;-2.15;51.85;100077.87;1792843;77;21831;-61
2021/03/06 03:02:35;;;;;;;0.50;0.20;;;;;;;-2.17;52.03;100087.09;1797593;77;21103;-61
2021/03/06 03:05:08;;;;;;;0.63;0.27;;;;;;;-2.20;52.12;100094.96;1795557;77;21100;-61
2021/03/06 03:08:17;;;;;;;1.13;0.30;;;;;;;-2.22;52.29;100099.80;1796429;77;21123;-61
2021/03/06 03:10:51;;;;;;;0.70;0.30;;;;;;;-2.30;52.33;100091.36;1799927;77;21099;-61
2021/03/06 03:13:49;;;;;;;0.40;0.20;;;;;;;-2.33;52.67;100095.75;1793825;77;21233;-61
2021/03/06 03:16:22;;;;;;;1.50;0.20;;;;;;;-2.34;52.71;100093.54;1795429;77;21873;-61
2021/03/06 03:19:02;;;;;;;0.63;0.20;;;;;;;-2.38;52.82;100097.44;1796620;77;21155;-61
2021/03/06 03:21:30;;;;;;;0.80;0.20;;;;;;;-2.44;53.07;100098.28;1792345;77;21704;-61
2021/03/06 03:24:07;;;;;;;1.63;0.30;;;;;;;-2.48;53.20;100097.81;1794536;77;21214;-61
2021/03/06 03:26:36;;;;;;;0.50;0.20;;;;;;;-2.51;53.32;100096.45;1797677;77;22436;-61
2021/03/06 03:29:03;;;;;;;0.63;0.23;;;;;;;-2.54;53.48;100101.69;1796256;77;21143;-61
2021/03/06 03:31:31;;;;;;;1.63;0.30;;;;;;;-2.54;53.62;100111.34;1763069;79;21658;-61
2021/03/06 03:33:59;;;;;;;0.77;0.30;;;;;;;-2.57;53.62;100104.31;1741975;79;21209;-60
2021/03/06 03:36:26;;;;;;;0.70;0.27;;;;;;;-2.58;53.86;100109.56;1791375;77;21143;-60
2021/03/06 03:38:54;;;;;;;1.57;0.40;;;;;;;-2.62;53.98;100116.54;1800235;77;21355;-60
2021/03/06 03:41:21;;;;;;;1.73;0.40;;;;;;;-2.64;54.11;100109.08;1790686;77;21221;-60
2021/03/06 03:43:48;;;;;;;0.80;0.40;;;;;;;-2.65;54.33;100114.33;1788568;77;23144;-60
2021/03/06 03:46:16;;;;;;;0.93;0.40;;;;;;;-2.65;54.56;100115.64;1788451;77;21186;-60
2021/03/06 03:48:44;;;;;;;3.00;0.37;;;;;;;-2.63;54.65;100114.77;1796387;77;21194;-60
2021/03/06 03:51:12;;;;;;;1.10;0.40;;;;;;;-2.63;54.81;100114.77;1789222;77;22721;-60
2021/03/06 03:53:39;;;;;;;2.00;0.40;;;;;;;-2.67;54.90;100118.26;1794476;77;22598;-61
2021/03/06 03:56:08;;;;;;;1.67;0.50;;;;;;;-2.68;55.13;100121.76;1788837;77;21170;-60
2021/03/06 03:58:35;;;;;;;2.00;0.50;;;;;;;-2.73;55.14;100122.16;1789458;77;21189;-60
2021/03/06 04:01:03;;;;;;;1.00;0.30;;;;;;;-2.76;55.34;100126.95;1791295;77;21171;-60
2021/03/06 04:03:30;;;;;;;4.93;0.50;;;;;;;-2.78;55.52;100127.36;1791585;77;21763;-60
2021/03/06 04:05:58;;;;;;;1.43;0.50;;;;;;;-2.80;55.57;100125.56;1799222;77;21194;-60
2021/03/06 04:08:25;;;;;;;1.03;0.40;;;;;;;-2.81;55.75;100127.77;1791883;77;21841;-60
2021/03/06 04:10:53;;;;;;;1.50;0.83;;;;;;;-2.83;55.93;100133.02;1796090;77;21471;-60
2021/03/06 04:13:20;;;;;;;4.00;0.60;;;;;;;-2.84;55.89;100133.00;1792189;77;21215;-60
2021/03/06 04:15:48;;;;;;;1.00;0.50;;;;;;;-2.87;55.95;100128.56;1791966;77;23017;-60
2021/03/06 04:18:16;;;;;;;3.57;0.50;;;;;;;-2.87;56.07;100127.68;1787999;77;21155;-60
2021/03/06 04:20:44;;;;;;;2.30;0.60;;;;;;;-2.90;56.04;100136.89;1797896;78;21616;-60
2021/03/06 04:23:12;;;;;;;3.10;1.00;;;;;;;-2.94;56.15;100133.75;1789643;78;21273;-59
2021/03/06 04:25:39;;;;;;;2.20;0.53;;;;;;;-2.97;56.23;100136.34;1788342;78;21214;-60
2021/03/06 04:28:06;;;;;;;1.43;0.50;;;;;;;-3.01;56.33;100137.18;1783555;78;21378;-59
2021/03/06 04:30:33;;;;;;;1.03;0.53;;;;;;;-3.04;56.42;100139.33;1782631;78;21643;-59
2021/03/06 04:33:01;;;;;;;1.33;0.50;;;;;;;-3.07;56.55;100148.11;1787940;78;21593;-59
2021/03/06 04:35:30;;;;;;;4.37;0.60;;;;;;;-3.08;56.52;100147.65;1787651;78;21187;-59
2021/03/06 04:37:58;;;;;;;1.30;0.50;;;;;;;-3.07;56.67;100153.80;1785229;78;21743;-60
2021/03/06 04:40:25;;;;;;;1.43;0.50;;;;;;;-3.08;56.45;100154.23;1786866;78;21723;-59
2021/03/06 04:42:52;;;;;;;1.77;0.50;;;;;;;-3.10;56.50;100158.59;1788450;78;21249;-60
2021/03/06 04:45:20;;;;;;;1.77;0.60;;;;;;;-3.10;56.47;100149.37;1788859;78;21134;-59
2021/03/06 04:47:47;;;;;;;2.43;0.50;;;;;;;-3.12;56.52;100155.47;1791154;78;21639;-59
2021/03/06 04:50:15;;;;;;;3.87;0.50;;;;;;;-3.15;56.53;100164.67;1788737;78;21212;-59
2021/03/06 04:52:42;;;;;;;1.77;0.60;;;;;;;-3.16;56.61;100159.83;1784409;78;23513;-59
2021/03/06 04:55:11;;;;;;;1.80;0.50;;;;;;;-3.17;56.61;100158.06;1782972;78;21151;-59
2021/03/06 04:57:38;;;;;;;2.43;0.40;;;;;;;-3.17;56.56;100157.17;1797078;78;21104;-59
2021/03/06 05:00:07;;;;;;;3.40;0.50;;;;;;;-3.16;56.55;100170.80;1788454;78;21136;-59
2021/03/06 05:02:36;;;;;;;3.00;0.60;;;;;;;-3.16;56.48;100167.73;1756989;80;21199;-59
2021/03/06 05:05:07;;;;;;;0.90;0.37;;;;;;;-3.19;56.58;100167.68;1769456;79;21791;-59
2021/03/06 05:07:34;;;;;;;1.37;0.50;;;;;;;-3.18;56.40;100169.88;1775089;78;21255;-59
2021/03/06 05:10:03;;;;;;;1.03;0.40;;;;;;;-3.19;56.40;100172.06;1770551;80;21204;-59
2021/03/06 05:12:30;;;;;;;1.10;0.67;;;;;;;-3.16;56.35;100182.22;1774342;80;21164;-59
2021/03/06 05:14:57;;;;;;;1.10;0.50;;;;;;;-3.16;56.36;100178.27;1771311;80;21184;-59
2021/03/06 05:17:25;;;;;;;2.47;0.67;;;;;;;-3.12;56.34;100185.75;1775445;78;22574;-59
2021/03/06 05:19:53;;;;;;;1.10;0.40;;;;;;;-3.05;56.24;100195.07;1780341;79;21184;-59
2021/03/06 05:22:21;;;;;;;1.00;0.40;;;;;;;-2.95;55.96;100189.92;1779833;78;21259;-59
2021/03/06 05:24:49;;;;;;;2.13;0.50;;;;;;;-2.83;55.75;100195.36;1775213;79;21183;-59
2021/03/06 05:27:18;;;;;;;1.13;0.80;;;;;;;-2.74;55.41;100199.00;1777247;78;21160;-60
2021/03/06 05:29:45;;;;;;;0.80;0.60;;;;;;;-2.61;54.79;100201.33;1778596;78;21275;-59
2021/03/06 05:32:12;;;;;;;1.57;0.50;;;;;;;-2.50;54.80;100215.53;1776913;79;21767;-61
2021/03/06 05:34:40;;;;;;;1.47;0.30;;;;;;;-2.35;54.57;100211.73;1777566;78;21167;-61
2021/03/06 05:37:07;;;;;;;2.60;0.47;;;;;;;-2.13;54.27;100208.91;1782628;79;21585;-62
2021/03/06 05:39:34;;;;;;;1.80;0.37;;;;;;;-1.88;53.92;100216.61;1773351;79;21194;-63
2021/03/06 05:42:04;;;;;;;1.67;0.40;;;;;;;-1.65;53.34;100222.08;1773664;79;21325;-62
2021/03/06 05:44:35;;;;;;;1.40;0.43;;;;;;;-1.47;52.73;100231.90;1776797;78;21172;-61
2021/03/06 05:47:02;;;;;;;1.73;0.50;;;;;;;-1.33;51.60;100226.27;1810842;77;21116;-61
2021/03/06 05:49:32;;;;;;;0.70;0.37;;;;;;;-1.30;51.35;100230.27;1801216;77;21087;-62
2021/03/06 05:52:00;;;;;;;0.90;0.53;;;;;;;-1.24;50.57;100230.30;1803053;77;21055;-62
2021/03/06 05:54:32;;;;;;;2.40;0.40;;;;;;;-1.23;50.75;100233.39;1803785;77;21111;-62
2021/03/06 05:57:00;;;;;;;1.07;0.47;;;;;;;-1.18;50.64;100238.25;1796447;77;21127;-62
2021/03/06 05:59:27;;;;;;;2.07;0.50;;;;;;;-1.07;49.99;100247.14;1807283;77;21122;-61
2021/03/06 06:01:54;;;;;;;1.47;0.40;;;;;;;-1.04;49.66;100247.17;1799369;77;21147;-62
2021/03/06 06:04:24;;;;;;;2.83;0.50;;;;;;;-1.08;49.72;100245.80;1806499;77;21074;-62
2021/03/06 06:06:51;;;;;;;2.03;0.40;;;;;;;-1.12;49.65;100248.88;1803661;77;21353;-62
2021/03/06 06:09:18;;;;;;;0.83;0.50;;;;;;;-1.09;49.39;100245.36;1799753;77;21442;-62
2021/03/06 06:11:46;;;;;;;0.97;0.40;;;;;;;-1.09;49.51;100250.20;1797873;77;21098;-62
2021/03/06 06:14:13;;;;;;;0.80;0.40;;;;;;;-1.05;48.94;100266.53;1801943;77;21105;-62
2021/03/06 06:16:41;;;;;;;1.00;0.40;;;;;;;-1.06;48.97;100272.69;1800473;77;21449;-61
2021/03/06 06:19:08;;;;;;;1.60;0.47;;;;;;;-1.07;49.07;100268.72;1797090;77;21798;-62
2021/03/06 06:21:49;;;;;;;1.40;0.60;;;;;;;-1.10;48.49;100264.28;1790897;78;21036;-62
2021/03/06 06:24:22;;;;;;;1.47;0.40;;;;;;;-1.20;48.63;100273.05;1787099;78;21151;-62
2021/03/06 06:27:09;;;;;;;1.57;0.40;;;;;;;-1.31;48.60;100273.39;1791459;78;21174;-61
2021/03/06 06:29:45;;;;;;;3.37;0.40;;;;;;;-1.34;48.57;100276.88;1748689;80;21260;-61
2021/03/06 06:32:14;;;;;;;1.63;0.40;;;;;;;-1.36;47.99;100281.73;1757418;80;21637;-62
2021/03/06 06:34:47;;;;;;;1.93;0.50;;;;;;;-1.36;48.59;100283.91;1719223;81;21184;-61
2021/03/06 06:37:15;;;;;;;2.07;0.80;;;;;;;-1.25;48.49;100282.67;1703787;82;21214;-62
2021/03/06 06:39:43;;;;;;;1.20;0.40;;;;;;;-1.15;48.06;100293.77;1738431;80;21218;-61
2021/03/06 06:42:10;;;;;;;1.50;0.40;;;;;;;-1.10;47.13;100288.49;1736931;80;21620;-61
2021/03/06 06:44:38;;;;;;;1.60;0.40;;;;;;;-1.10;47.26;100285.42;1720780;81;21831;-60
2021/03/06 06:47:16;;;;;;;1.70;0.40;;;;;;;-1.04;47.30;100299.13;1699272;82;21243;-61
2021/03/06 06:49:46;;;;;;;0.80;0.40;;;;;;;-0.97;46.81;100295.65;1731869;81;21194;-62
2021/03/06 06:52:15;;;;;;;0.80;0.30;;;;;;;-0.95;46.27;100293.48;1730718;81;21202;-59
2021/03/06 06:54:56;;;;;;;1.90;0.40;;;;;;;-0.95;46.11;100297.44;1729603;81;21513;-60
2021/03/06 06:57:26;;;;;;;2.00;0.73;;;;;;;-0.95;46.06;100295.23;1730098;81;22835;-61
2021/03/06 07:00:08;;;;;;;1.83;0.40;;;;;;;-0.94;45.63;100292.61;1732372;81;21624;-62
2021/03/06 07:02:35;;;;;;;4.17;0.40;;;;;;;-0.94;45.67;100293.92;1701324;82;21213;-60
2021/03/06 07:05:05;;;;;;;1.87;0.30;;;;;;;-0.87;44.81;100288.23;1732523;81;21846;-61
2021/03/06 07:07:39;;;;;;;1.23;0.40;;;;;;;-0.87;44.06;100301.45;1750789;80;21191;-60
2021/03/06 07:10:13;;;;;;;0.87;0.30;;;;;;;-0.91;44.44;100299.20;1753602;80;21819;-60
2021/03/06 07:12:45;;;;;;;1.20;0.30;;;;;;;-0.87;44.27;100297.05;1755010;80;21131;-58
2021/03/06 07:15:15;;;;;;;0.93;0.30;;;;;;;-0.85;42.91;100297.92;1755727;80;21197;-60
2021/03/06 07:17:43;;;;;;;2.90;0.30;;;;;;;-0.96;43.00;100294.34;1751369;80;21194;-59
2021/03/06 07:20:16;;;;;;;1.97;0.40;;;;;;;-0.96;44.07;100303.59;1747760;80;21139;-59
2021/03/06 07:22:43;;;;;;;0.80;0.33;;;;;;;-0.85;43.92;100297.06;1740050;80;21400;-58
2021/03/06 07:25:10;;;;;;;1.50;0.30;;;;;;;-0.72;43.04;100302.86;1753563;80;21677;-60
2021/03/06 07:27:38;;;;;;;1.03;0.30;;;;;;;-0.72;42.10;100299.33;1753975;80;21174;-60
2021/03/06 07:30:07;;;;;;;0.60;0.30;;;;;;;-0.76;42.36;100305.91;1743289;80;21550;-60
2021/03/06 07:32:40;;;;;;;0.70;0.30;;;;;;;-0.71;41.93;100302.42;1746168;80;21103;-60
2021/03/06 07:35:10;;;;;;;1.70;0.40;;;;;;;-0.62;41.86;100308.65;1747747;80;23034;-58
2021/03/06 07:37:38;;;;;;;1.33;0.33;;;;;;;-0.62;41.86;100308.65;1725652;81;21617;-60
2021/03/06 07:40:12;;;;;;;2.23;0.40;;;;;;;-0.61;40.71;100307.78;1726208;81;21210;-61
2021/03/06 07:44:32;;;;;;;2.33;0.30;;;;;;;-0.59;41.66;100317.90;1867860;75;26762;-61
2021/03/06 07:47:00;;;;;;;0.87;0.70;;;;;;;-0.56;41.98;100316.61;1843166;76;21198;-61
2021/03/06 07:49:31;;;;;;;4.50;0.30;;;;;;;-0.42;42.33;100317.98;1748660;78;21393;-61
2021/03/06 07:51:59;;;;;;;0.50;0.30;;;;;;;-0.27;41.97;100316.77;1777807;78;21187;-61
2021/03/06 07:54:26;;;;;;;0.70;0.30;;;;;;;-0.14;41.23;100313.27;1780736;78;21222;-61
2021/03/06 07:56:54;;;;;;;0.80;0.30;;;;;;;-0.10;40.73;100318.15;1798465;78;21592;-61
2021/03/06 07:59:53;;;;;;;0.43;0.30;;;;;;;-0.08;40.87;100313.28;1782763;78;21190;-61
2021/03/06 08:02:38;;;;;;;0.80;0.30;;;;;;;-0.02;40.79;100312.00;1782664;79;21386;-61
2021/03/06 08:05:28;;;;;;;0.60;0.20;;;;;;;0.02;40.51;100312.88;1784288;79;21477;-61
2021/03/06 08:07:56;;;;;;;3.20;0.20;;;;;;;0.04;40.08;100322.16;1782622;78;20981;-61
2021/03/06 08:10:24;;;;;;;0.53;0.30;;;;;;;0.02;40.04;100314.64;1801677;78;21091;-60
2021/03/06 08:12:51;;;;;;;0.70;0.30;;;;;;;0.06;40.39;100311.14;1798148;78;21219;-60
2021/03/06 08:15:31;;;;;;;2.77;0.30;;;;;;;0.13;40.32;100307.63;1801146;78;21406;-59
2021/03/06 08:18:00;;;;;;;0.83;0.40;;;;;;;0.19;39.94;100311.59;1805739;78;21229;-61
2021/03/06 08:20:31;;;;;;;1.33;0.30;;;;;;;0.24;40.25;100311.19;1802013;78;21495;-60
2021/03/06 08:23:20;;;;;;;0.80;0.30;;;;;;;0.33;40.32;100307.23;1807223;78;21173;-60
2021/03/06 08:25:49;;;;;;;0.60;0.30;;;;;;;0.43;40.12;100310.75;1773293;79;21834;-62
2021/03/06 08:28:26;;;;;;;1.10;0.30;;;;;;;0.50;39.50;100309.91;1773495;79;21510;-62
2021/03/06 08:30:54;;;;;;;1.20;0.40;;;;;;;0.52;40.24;100314.30;1779012;79;21127;-63
2021/03/06 08:33:23;;;;;;;0.50;0.30;;;;;;;0.57;38.63;100319.19;1786247;79;21166;-60
2021/03/06 08:35:50;;;;;;;1.30;0.30;;;;;;;0.53;39.34;100324.45;1776021;79;21188;-60
2021/03/06 08:38:32;;;;;;;0.50;0.20;;;;;;;0.52;38.00;100316.95;1741893;79;21089;-63
2021/03/06 08:40:59;;;;;;;2.03;0.20;;;;;;;0.50;37.89;100321.39;1777147;79;21453;-61
2021/03/06 08:43:26;;;;;;;0.50;0.10;;;;;;;0.46;37.33;100310.33;1774858;79;21579;-61
2021/03/06 08:45:53;;;;;;;1.03;0.30;;;;;;;0.47;38.06;100317.84;1791644;79;21207;-61
2021/03/06 08:48:22;;;;;;;0.70;0.20;;;;;;;0.50;37.68;100312.12;1785393;79;21135;-63
2021/03/06 08:50:50;;;;;;;1.07;0.20;;;;;;;0.52;37.60;100309.00;1783840;79;21090;-64
2021/03/06 08:53:19;;;;;;;0.50;0.27;;;;;;;0.55;37.98;100314.32;1786899;79;21338;-61
2021/03/06 08:55:47;;;;;;;0.70;0.30;;;;;;;0.58;38.07;100310.80;1779005;78;21122;-64
2021/03/06 08:58:20;;;;;;;0.50;0.20;;;;;;;0.64;38.28;100309.03;1778592;79;21126;-62
2021/03/06 09:00:51;;;;;;;0.60;0.20;;;;;;;0.71;38.13;100303.28;1779636;79;21091;-61
2021/03/06 09:03:24;;;;;;;0.90;0.20;;;;;;;0.82;37.68;100307.27;1780701;78;21137;-62
2021/03/06 09:05:55;;;;;;;0.57;0.20;;;;;;;0.86;37.23;100306.36;1778683;79;20996;-64
2021/03/06 09:08:26;;;;;;;0.30;0.10;;;;;;;0.86;35.26;100301.06;1778500;79;20968;-65
2021/03/06 09:10:58;;;;;;;0.40;0.20;;;;;;;0.82;35.70;100318.75;1777532;79;21182;-62
2021/03/06 09:13:28;;;;;;;1.37;0.07;;;;;;;0.80;35.53;100311.67;1776745;78;21146;-64
2021/03/06 09:16:03;;;;;;;0.60;0.20;;;;;;;0.80;36.15;100301.96;1775832;79;21524;-61
2021/03/06 09:18:33;;;;;;;0.50;0.20;;;;;;;0.89;36.28;100309.02;1777004;78;22747;-64
2021/03/06 09:21:04;;;;;;;0.63;0.20;;;;;;;0.90;35.88;100310.36;1774070;79;21157;-64
2021/03/06 09:23:34;;;;;;;0.50;0.13;;;;;;;0.91;36.08;100316.10;1775327;78;21205;-62
2021/03/06 09:26:12;;;;;;;0.30;0.20;;;;;;;0.94;36.35;100316.52;1777908;79;21238;-60
2021/03/06 09:28:38;;;;;;;0.33;0.20;;;;;;;1.04;36.57;100313.87;1777193;78;21116;-62
2021/03/06 09:31:13;;;;;;;0.60;0.13;;;;;;;1.17;36.25;100313.43;1778710;78;21649;-63
2021/03/06 09:33:40;;;;;;;0.65;0.20;;;;;;;1.25;36.19;100308.11;1776529;79;22993;-63
2021/03/06 09:36:13;;;;;;;1.07;0.20;;;;;;;1.31;35.04;100305.44;1776439;78;21208;-63
2021/03/06 09:38:48;;;;;;;0.40;0.10;;;;;;;1.29;35.31;100304.55;1776449;79;21186;-62
2021/03/06 09:41:21;;;;;;;0.53;0.10;;;;;;;1.28;35.20;100301.01;1780529;78;21207;-61
2021/03/06 09:43:56;;;;;;;0.67;0.13;;;;;;;1.31;35.19;100298.36;1775367;79;21640;-62
2021/03/06 09:46:32;;;;;;;0.20;0.10;;;;;;;1.33;35.28;100293.95;1796582;78;21991;-60
2021/03/06 09:49:13;;;;;;;0.60;0.20;;;;;;;1.39;35.13;100295.25;1775469;78;21252;-62
2021/03/06 09:51:45;;;;;;;0.77;0.20;;;;;;;1.46;35.74;100286.82;1804522;78;21150;-64
2021/03/06 09:54:15;;;;;;;0.30;0.10;;;;;;;1.54;35.70;100292.98;1800271;78;21618;-63
2021/03/06 09:56:47;;;;;;;0.40;0.10;;;;;;;1.53;35.05;100297.41;1782042;78;21213;-61
2021/03/06 09:59:14;;;;;;;1.33;0.10;;;;;;;1.59;36.17;100294.31;1799142;78;21637;-60
2021/03/06 10:01:43;;;;;;;0.40;0.20;;;;;;;1.65;35.29;100296.49;1803822;78;21091;-61
2021/03/06 10:04:19;;;;;;;0.40;0.10;;;;;;;1.70;35.89;100296.49;1799892;78;21623;-61
2021/03/06 10:06:53;;;;;;;0.27;0.13;;;;;;;1.77;35.41;100294.25;1801794;78;21229;-60
2021/03/06 10:09:22;;;;;;;2.67;0.27;;;;;;;1.80;34.59;100299.52;1802438;78;22858;-63
2021/03/06 10:11:52;;;;;;;3.40;0.13;;;;;;;1.72;35.03;100286.28;1801403;78;21122;-63
2021/03/06 10:14:22;;;;;;;0.20;0.10;;;;;;;1.70;35.56;100284.55;1801612;78;21095;-61
2021/03/06 10:17:00;;;;;;;0.60;0.20;;;;;;;1.74;35.89;100284.52;1769305;79;21143;-62
2021/03/06 10:19:31;;;;;;;0.63;0.20;;;;;;;1.84;35.46;100280.05;1777629;78;21101;-60
2021/03/06 10:22:05;;;;;;;0.30;0.20;;;;;;;1.93;35.71;100278.69;1764228;79;21388;-61
2021/03/06 10:24:53;;;;;;;0.40;0.20;;;;;;;2.01;35.35;100289.26;1777193;79;21102;-60
2021/03/06 10:27:46;;;;;;;2.97;0.20;;;;;;;2.04;34.34;100278.64;1801095;78;21170;-63
2021/03/06 10:30:25;;;;;;;0.53;0.10;;;;;;;1.97;34.17;100275.55;1802145;78;21102;-62
2021/03/06 10:32:56;;;;;;;0.47;0.20;;;;;;;2.01;35.50;100277.31;1796827;78;21568;-63
2021/03/06 10:35:42;;;;;;;0.40;0.17;;;;;;;2.11;34.96;100274.61;1806549;78;21199;-61
2021/03/06 10:38:28;;;;;;;0.20;0.10;;;;;;;2.19;33.96;100271.90;1799164;78;21430;-60
2021/03/06 10:40:57;;;;;;;0.87;0.20;;;;;;;2.20;33.91;100267.91;1765545;79;21703;-63
2021/03/06 10:43:43;;;;;;;0.30;0.10;;;;;;;2.19;33.14;100269.24;1799043;78;21619;-60
2021/03/06 10:46:24;;;;;;;0.40;0.20;;;;;;;2.15;33.70;100269.70;1807187;78;21095;-62
2021/03/06 10:48:54;;;;;;;0.43;0.13;;;;;;;2.23;34.11;100266.98;1805227;78;21718;-60
2021/03/06 10:51:23;;;;;;;2.20;1.33;;;;;;;2.32;33.24;100262.95;1802142;78;21166;-61
2021/03/06 10:54:05;;;;;;;0.93;0.10;;;;;;;2.33;32.90;100267.81;1781769;78;21218;-63
2021/03/06 10:56:34;;;;;;;0.30;0.10;;;;;;;2.28;32.54;100257.23;1776974;78;21083;-63
2021/03/06 10:59:02;;;;;;;1.43;0.20;;;;;;;2.26;32.84;100253.25;1784702;79;21114;-63
2021/03/06 11:01:33;;;;;;;0.30;0.10;;;;;;;2.27;33.34;100259.45;1804742;78;21199;-61
2021/03/06 11:04:02;;;;;;;0.30;0.10;;;;;;;2.38;33.38;100261.59;1752448;80;21155;-61
2021/03/06 11:06:30;;;;;;;0.40;0.10;;;;;;;2.48;33.53;100249.98;1807459;78;21170;-65
2021/03/06 11:09:05;;;;;;;1.23;0.17;;;;;;;2.57;33.66;100260.54;1752175;78;21632;-61
2021/03/06 11:11:34;;;;;;;0.60;0.20;;;;;;;2.65;32.64;100243.20;1779399;78;21184;-62
2021/03/06 11:14:02;;;;;;;0.50;0.10;;;;;;;2.64;33.29;100255.60;1802591;78;23486;-63
2021/03/06 11:16:37;;;;;;;0.20;0.10;;;;;;;2.63;32.72;100247.67;1805439;78;21182;-63
2021/03/06 11:19:06;;;;;;;0.20;0.10;;;;;;;2.57;32.29;100254.34;1805331;78;21465;-65
2021/03/06 11:21:33;;;;;;;0.40;0.10;;;;;;;2.46;32.45;100245.59;1768707;80;21688;-61
2021/03/06 11:24:01;;;;;;;0.40;0.10;;;;;;;2.34;33.18;100244.34;1770967;80;21111;-63
2021/03/06 11:26:28;;;;;;;1.03;0.20;;;;;;;2.27;33.44;100250.16;1768037;79;21215;-63
2021/03/06 11:28:56;;;;;;;1.70;0.20;;;;;;;2.22;33.75;100251.50;1806621;78;21277;-61
2021/03/06 11:31:23;;;;;;;0.50;0.20;;;;;;;2.17;34.01;100251.98;1778066;78;21186;-61
2021/03/06 11:33:51;;;;;;;0.50;0.30;;;;;;;2.17;34.18;100246.67;1780527;78;21750;-61
2021/03/06 11:36:18;;;;;;;0.43;0.20;;;;;;;2.18;34.63;100243.13;1804432;78;21170;-63
2021/03/06 11:41:17;;;;;;;0.77;0.10;;;;;;;2.24;35.32;100236.87;1867336;75;26702;-60
2021/03/06 11:43:46;;;;;;;0.30;0.10;;;;;;;2.25;34.53;100238.20;1801972;77;21159;-62
2021/03/06 11:46:13;;;;;;;2.47;0.20;;;;;;;2.30;35.02;100243.95;1775605;78;22757;-61
2021/03/06 11:48:43;;;;;;;0.50;0.20;;;;;;;2.32;34.88;100230.18;1800817;78;21517;-62
2021/03/06 11:51:11;;;;;;;1.80;0.20;;;;;;;2.35;34.69;100236.81;1812081;77;20972;-62